createdAt,value
2023-03-16T00:00:36.065Z,101599.88
2023-03-16T00:03:39.697Z,101591.38
2023-03-16T00:06:42.815Z,101599.22
2023-03-16T00:09:47.054Z,101600.22
2023-03-16T00:12:53.831Z,101601.16
2023-03-16T00:15:59.717Z,101607.16
2023-03-16T00:19:03.715Z,101606.34
2023-03-16T00:22:06.857Z,101603.75
2023-03-16T00:25:14.314Z,101598.75
2023-03-16T00:28:17.783Z,101600.66
2023-03-16T00:31:21.241Z,101605.78
2023-03-16T00:34:27.210Z,101612.69
2023-03-16T00:37:30.838Z,101612.81
2023-03-16T00:40:37.161Z,101615.38
2023-03-16T00:43:41.625Z,101615.38
2023-03-16T00:46:45.023Z,101614.50
2023-03-16T00:49:48.575Z,101614.59
2023-03-16T00:52:53.601Z,101621.50
2023-03-16T00:55:58.248Z,101612.09
2023-03-16T00:59:01.306Z,101623.31
2023-03-16T01:02:04.995Z,101625.00
2023-03-16T01:05:09.877Z,101625.94
2023-03-16T01:08:12.940Z,101628.59
2023-03-16T01:11:20.027Z,101626.91
2023-03-16T01:14:24.281Z,101629.47
2023-03-16T01:17:27.908Z,101629.47
2023-03-16T01:20:30.955Z,101630.28
2023-03-16T01:23:35.008Z,101620.06
2023-03-16T01:26:39.702Z,101623.47
2023-03-16T01:29:43.768Z,101626.13
2023-03-16T01:32:47.571Z,101613.38
2023-03-16T01:35:57.708Z,101610.94
2023-03-16T01:39:02.094Z,101619.47
2023-03-16T01:42:14.097Z,101617.00
2023-03-16T01:46:14.375Z,101622.13
2023-03-16T01:49:26.637Z,101616.19
2023-03-16T01:52:36.809Z,101623.91
2023-03-16T01:55:40.026Z,101623.09
2023-03-16T01:58:46.675Z,101620.53
2023-03-16T02:01:52.730Z,101622.25
2023-03-16T02:05:03.093Z,101621.34
2023-03-16T02:08:07.307Z,101614.59
2023-03-16T02:11:11.460Z,101613.78
2023-03-16T02:14:26.568Z,101612.09
2023-03-16T02:17:32.501Z,101611.28
2023-03-16T02:20:48.875Z,101607.03
2023-03-16T02:23:52.491Z,101607.84
2023-03-16T02:27:00.114Z,101601.03
2023-03-16T02:30:12.608Z,101607.03
2023-03-16T02:33:35.969Z,101604.47
2023-03-16T02:36:42.184Z,101610.44
2023-03-16T02:39:45.641Z,101610.47
2023-03-16T02:43:04.392Z,101610.50
2023-03-16T02:46:12.593Z,101613.09
2023-03-16T02:49:21.028Z,101616.53
2023-03-16T02:52:24.555Z,101617.44
2023-03-16T02:55:28.230Z,101614.00
2023-03-16T02:58:32.520Z,101614.94
2023-03-16T03:01:41.877Z,101609.81
2023-03-16T03:04:47.072Z,101617.50
2023-03-16T03:07:50.261Z,101632.00
2023-03-16T03:10:53.266Z,101631.16
2023-03-16T03:13:56.862Z,101629.50
2023-03-16T03:17:04.352Z,101634.66
2023-03-16T03:20:15.519Z,101642.31
2023-03-16T03:23:18.543Z,101646.59
2023-03-16T03:26:22.583Z,101644.00
2023-03-16T03:29:25.812Z,101646.59
2023-03-16T03:32:31.364Z,101637.25
2023-03-16T03:35:34.786Z,101641.50
2023-03-16T03:38:38.284Z,101645.72
2023-03-16T03:41:42.852Z,101650.00
2023-03-16T03:44:47.224Z,101645.78
2023-03-16T03:47:52.200Z,101648.34
2023-03-16T03:50:57.440Z,101648.34
2023-03-16T03:54:19.061Z,101650.03
2023-03-16T03:57:27.785Z,101646.63
2023-03-16T04:00:31.005Z,101648.34
2023-03-16T04:03:35.542Z,101647.53
2023-03-16T04:06:38.612Z,101646.75
2023-03-16T04:09:45.093Z,101650.13
2023-03-16T04:12:59.204Z,101654.38
2023-03-16T04:16:04.030Z,101655.22
2023-03-16T04:19:15.784Z,101639.06
2023-03-16T04:22:19.566Z,101650.16
2023-03-16T04:25:23.652Z,101651.00
2023-03-16T04:28:27.294Z,101653.53
2023-03-16T04:31:30.709Z,101647.59
2023-03-16T04:34:36.111Z,101649.28
2023-03-16T04:37:42.025Z,101649.31
2023-03-16T04:40:45.054Z,101653.56
2023-03-16T04:43:53.237Z,101652.69
2023-03-16T04:47:00.401Z,101653.56
2023-03-16T04:50:13.292Z,101654.44
2023-03-16T04:53:18.883Z,101658.72
2023-03-16T04:56:27.398Z,101652.75
2023-03-16T04:59:35.741Z,101662.13
2023-03-16T05:02:48.778Z,101657.00
2023-03-16T05:05:53.896Z,101666.38
2023-03-16T05:09:00.702Z,101668.06
2023-03-16T05:12:05.843Z,101667.22
2023-03-16T05:15:10.726Z,101663.81
2023-03-16T05:18:16.989Z,101674.03
2023-03-16T05:21:21.412Z,101669.78
2023-03-16T05:24:34.425Z,101669.78
2023-03-16T05:27:37.485Z,101673.19
2023-03-16T05:30:43.238Z,101665.53
2023-03-16T05:33:50.322Z,101668.94
2023-03-16T05:36:57.414Z,101679.16
2023-03-16T05:40:01.543Z,101674.88
2023-03-16T05:43:37.580Z,101674.03
2023-03-16T05:46:41.222Z,101674.03
2023-03-16T05:49:44.350Z,101679.97
2023-03-16T05:52:58.874Z,101683.38
2023-03-16T05:56:07.960Z,101686.78
2023-03-16T05:59:18.180Z,101693.59
2023-03-16T06:02:26.795Z,101696.97
2023-03-16T06:05:32.245Z,101705.50
2023-03-16T06:08:36.496Z,101701.22
2023-03-16T06:11:45.025Z,101694.41
2023-03-16T06:14:51.073Z,101693.53
2023-03-16T06:17:54.109Z,101701.19
2023-03-16T06:20:57.486Z,101696.03
2023-03-16T06:24:02.469Z,101696.03
2023-03-16T06:27:06.260Z,101701.13
2023-03-16T06:30:20.162Z,101698.56
2023-03-16T06:33:23.563Z,101700.22
2023-03-16T06:36:26.794Z,101708.72
2023-03-16T06:39:35.136Z,101710.34
2023-03-16T06:42:38.448Z,101717.09
2023-03-16T06:45:44.345Z,101716.19
2023-03-16T06:48:48.204Z,101710.94
2023-03-16T06:51:51.662Z,101715.94
2023-03-16T06:54:58.520Z,101724.44
2023-03-16T06:58:03.025Z,101718.38
2023-03-16T07:01:06.835Z,101723.41
2023-03-16T07:04:10.011Z,101725.03
2023-03-16T07:07:13.467Z,101731.66
2023-03-16T07:10:19.525Z,101728.94
2023-03-16T07:13:22.861Z,101740.72
2023-03-16T07:16:27.100Z,101739.66
2023-03-16T07:19:31.499Z,101742.81
2023-03-16T07:22:38.421Z,101747.66
2023-03-16T07:25:45.978Z,101757.63
2023-03-16T07:28:50.334Z,101764.34
2023-03-16T07:31:54.500Z,101761.56
2023-03-16T07:35:02.112Z,101774.16
2023-03-16T07:38:09.958Z,101774.00
2023-03-16T07:41:17.965Z,101784.06
2023-03-16T07:44:22.119Z,101788.09
2023-03-16T07:47:26.606Z,101780.25
2023-03-16T07:50:32.435Z,101781.03
2023-03-16T07:53:35.901Z,101782.47
2023-03-16T07:56:51.951Z,101784.75
2023-03-16T08:00:11.634Z,101787.09
2023-03-16T08:03:19.764Z,101787.72
2023-03-16T08:06:25.402Z,101790.00
2023-03-16T08:09:28.862Z,101799.91
2023-03-16T08:12:33.724Z,101797.03
2023-03-16T08:15:37.178Z,101800.84
2023-03-16T08:18:47.230Z,101786.19
2023-03-16T08:22:01.205Z,101791.06
2023-03-16T08:25:11.131Z,101784.13
2023-03-16T08:28:21.529Z,101776.09
2023-03-16T08:31:26.134Z,101778.25
2023-03-16T08:34:50.015Z,101779.59
2023-03-16T08:37:54.429Z,101783.31
2023-03-16T08:40:58.209Z,101788.41
2023-03-16T08:44:03.835Z,101786.44
2023-03-16T08:47:07.055Z,101799.00
2023-03-16T08:50:13.943Z,101790.59
2023-03-16T08:53:17.091Z,101797.47
2023-03-16T08:56:20.335Z,101799.56
2023-03-16T08:59:30.224Z,101798.88
2023-03-16T09:02:38.441Z,101802.25
2023-03-16T09:05:42.375Z,101804.25
2023-03-16T09:08:47.678Z,101799.63
2023-03-16T09:11:50.716Z,101797.53
2023-03-16T09:14:55.310Z,101804.50
2023-03-16T09:18:00.600Z,101801.84
2023-03-16T09:21:06.246Z,101801.47
2023-03-16T09:24:10.198Z,101806.13
2023-03-16T09:27:13.863Z,101810.19
2023-03-16T09:30:18.966Z,101805.78
2023-03-16T09:33:22.800Z,101809.91
2023-03-16T09:36:25.739Z,101804.41
2023-03-16T09:39:29.248Z,101804.75
2023-03-16T09:42:37.782Z,101801.84
2023-03-16T09:45:50.404Z,101809.69
2023-03-16T09:48:55.707Z,101804.47
2023-03-16T09:52:10.025Z,101808.50
2023-03-16T09:55:25.979Z,101806.34
2023-03-16T09:58:28.967Z,101802.94
2023-03-16T10:01:48.270Z,101805.44
2023-03-16T10:05:06.298Z,101811.94
2023-03-16T10:08:16.916Z,101816.47
2023-03-16T10:11:27.822Z,101806.06
2023-03-16T10:14:40.116Z,101813.44
2023-03-16T10:17:54.495Z,101794.63
2023-03-16T10:20:58.549Z,101797.91
2023-03-16T10:24:04.436Z,101806.25
2023-03-16T10:27:15.988Z,101797.88
2023-03-16T10:30:28.358Z,101802.44
2023-03-16T10:33:36.592Z,101796.22
2023-03-16T10:36:42.835Z,101803.78
2023-03-16T10:39:46.808Z,101796.28
2023-03-16T10:42:50.181Z,101796.28
2023-03-16T10:45:55.179Z,101787.94
2023-03-16T10:49:01.841Z,101785.13
2023-03-16T10:52:14.727Z,101788.66
2023-03-16T10:55:24.320Z,101793.38
2023-03-16T10:58:32.181Z,101793.78
2023-03-16T11:01:35.232Z,101784.97
2023-03-16T11:04:40.749Z,101786.91
2023-03-16T11:07:50.370Z,101788.69
2023-03-16T11:10:58.618Z,101787.03
2023-03-16T11:14:05.121Z,101788.28
2023-03-16T11:17:14.336Z,101777.31
2023-03-16T11:20:26.340Z,101779.59
2023-03-16T11:23:34.458Z,101775.41
2023-03-16T11:26:42.875Z,101766.91
2023-03-16T11:30:00.136Z,101769.06
2023-03-16T11:33:04.163Z,101775.78
2023-03-16T11:36:27.839Z,101768.09
2023-03-16T11:39:42.891Z,101768.09
2023-03-16T11:43:00.242Z,101768.25
2023-03-16T11:46:12.547Z,101762.34
2023-03-16T11:49:44.544Z,101751.94
2023-03-16T11:53:01.364Z,101752.19
2023-03-16T11:56:17.168Z,101749.16
2023-03-16T11:59:46.268Z,101740.84
2023-03-16T12:03:24.948Z,101741.00
2023-03-16T12:06:57.560Z,101741.88
2023-03-16T12:10:26.011Z,101732.47
2023-03-16T12:13:49.078Z,101734.00
2023-03-16T12:16:57.775Z,101725.19
2023-03-16T12:20:07.239Z,101729.81
2023-03-16T12:23:15.773Z,101725.59
2023-03-16T12:26:22.820Z,101727.06
2023-03-16T12:29:35.198Z,101719.66
2023-03-16T12:32:46.912Z,101710.81
2023-03-16T12:35:57.828Z,101713.31
2023-03-16T12:39:06.683Z,101705.16
2023-03-16T12:42:30.015Z,101708.19
2023-03-16T12:45:42.303Z,101696.72
2023-03-16T12:48:50.580Z,101689.31
2023-03-16T12:52:02.106Z,101700.97
2023-03-16T12:55:13.783Z,101695.28
2023-03-16T12:58:20.004Z,101689.84
2023-03-16T13:01:34.611Z,101691.34
2023-03-16T13:04:43.010Z,101691.53
2023-03-16T13:07:51.342Z,101684.88
2023-03-16T13:11:06.278Z,101675.09
2023-03-16T13:14:13.447Z,101674.72
2023-03-16T13:17:30.333Z,101675.31
2023-03-16T13:20:36.787Z,101670.44
2023-03-16T13:23:59.606Z,101662.25
2023-03-16T13:27:07.795Z,101656.03
2023-03-16T13:30:22.350Z,101672.00
2023-03-16T13:33:28.398Z,101667.66
2023-03-16T13:36:33.891Z,101673.03
2023-03-16T13:39:37.103Z,101675.66
2023-03-16T13:42:40.545Z,101676.13
2023-03-16T13:45:45.765Z,101664.84
2023-03-16T13:48:51.212Z,101662.25
2023-03-16T13:51:54.821Z,101666.34
2023-03-16T13:54:59.945Z,101662.59
2023-03-16T13:58:03.903Z,101647.97
2023-03-16T14:01:21.339Z,101633.53
2023-03-16T14:04:28.711Z,101635.66
2023-03-16T14:07:38.552Z,101626.75
2023-03-16T14:10:41.768Z,101613.00
2023-03-16T14:13:52.835Z,101615.47
2023-03-16T14:17:05.312Z,101617.69
2023-03-16T14:20:20.872Z,101617.34
2023-03-16T14:23:26.060Z,101619.28
2023-03-16T14:26:40.493Z,101622.22
2023-03-16T14:29:44.506Z,101619.00
2023-03-16T14:33:01.385Z,101620.63
2023-03-16T14:36:14.254Z,101625.91
2023-03-16T14:39:21.501Z,101613.56
2023-03-16T14:42:29.929Z,101607.06
2023-03-16T14:45:43.286Z,101597.19
2023-03-16T14:49:08.348Z,101595.06
2023-03-16T14:52:39.352Z,101580.41
2023-03-16T14:55:43.150Z,101576.66
2023-03-16T14:58:46.198Z,101592.56
2023-03-16T15:01:51.628Z,101583.91
2023-03-16T15:04:57.633Z,101576.81
2023-03-16T15:08:01.061Z,101588.69
2023-03-16T15:11:07.696Z,101582.91
2023-03-16T15:14:35.333Z,101578.63
2023-03-16T15:17:38.928Z,101571.38
2023-03-16T15:20:45.848Z,101557.00
2023-03-16T15:23:49.703Z,101553.25
2023-03-16T15:26:53.243Z,101557.31
2023-03-16T15:30:32.301Z,101567.97
2023-03-16T15:33:35.716Z,101569.09
2023-03-16T15:36:40.075Z,101572.09
2023-03-16T15:39:43.172Z,101563.19
2023-03-16T15:42:47.125Z,101557.50
2023-03-16T15:45:52.083Z,101572.94
2023-03-16T15:48:55.081Z,101559.47
2023-03-16T15:51:59.441Z,101557.25
2023-03-16T15:55:07.688Z,101552.53
2023-03-16T15:58:24.306Z,101556.53
2023-03-16T16:01:31.225Z,101544.41
2023-03-16T16:04:34.244Z,101554.28
2023-03-16T16:07:38.597Z,101554.09
2023-03-16T16:10:43.282Z,101548.50
2023-03-16T16:13:58.467Z,101551.13
2023-03-16T16:17:01.528Z,101556.47
2023-03-16T16:20:24.758Z,101558.13
2023-03-16T16:23:30.014Z,101553.53
2023-03-16T16:26:50.054Z,101552.78
2023-03-16T16:29:56.098Z,101544.59
2023-03-16T16:32:59.502Z,101551.56
2023-03-16T16:36:05.386Z,101556.13
2023-03-16T16:39:13.603Z,101558.09
2023-03-16T16:42:18.335Z,101554.44
2023-03-16T16:45:25.228Z,101550.28
2023-03-16T16:48:34.998Z,101544.69
2023-03-16T16:51:43.215Z,101541.16
2023-03-16T16:54:48.065Z,101539.91
2023-03-16T16:57:55.766Z,101546.28
2023-03-16T17:00:59.483Z,101540.19
2023-03-16T17:04:03.575Z,101548.06
2023-03-16T17:07:10.239Z,101535.56
2023-03-16T17:10:25.352Z,101533.91
2023-03-16T17:13:33.954Z,101531.50
2023-03-16T17:16:38.139Z,101527.56
2023-03-16T17:19:46.416Z,101533.09
2023-03-16T17:22:51.406Z,101539.41
2023-03-16T17:25:58.363Z,101542.84
2023-03-16T17:29:06.173Z,101539.41
2023-03-16T17:32:19.937Z,101544.78
2023-03-16T17:35:23.963Z,101550.88
2023-03-16T17:38:27.274Z,101540.66
2023-03-16T17:41:33.163Z,101542.34
2023-03-16T17:44:41.473Z,101540.06
2023-03-16T17:47:45.033Z,101547.19
2023-03-16T17:50:50.150Z,101546.63
2023-03-16T17:53:53.814Z,101549.53
2023-03-16T17:56:58.215Z,101557.75
2023-03-16T18:00:03.552Z,101544.16
2023-03-16T18:03:13.889Z,101540.19
2023-03-16T18:06:21.396Z,101529.97
2023-03-16T18:09:31.370Z,101531.75
2023-03-16T18:12:37.685Z,101534.41
2023-03-16T18:15:40.897Z,101531.19
2023-03-16T18:18:44.007Z,101536.84
2023-03-16T18:21:46.964Z,101535.41
2023-03-16T18:24:53.905Z,101541.53
2023-03-16T18:27:58.805Z,101532.16
2023-03-16T18:31:03.711Z,101539.97
2023-03-16T18:34:07.670Z,101524.00
2023-03-16T18:37:19.386Z,101526.63
2023-03-16T18:40:26.424Z,101522.34
2023-03-16T18:43:31.378Z,101530.19
2023-03-16T18:46:41.177Z,101532.03
2023-03-16T18:49:49.283Z,101532.03
2023-03-16T18:52:53.684Z,101519.09
2023-03-16T18:55:57.619Z,101517.56
2023-03-16T18:59:02.237Z,101506.47
2023-03-16T19:02:05.862Z,101502.22
2023-03-16T19:05:15.508Z,101509.91
2023-03-16T19:08:19.240Z,101509.13
2023-03-16T19:11:22.235Z,101506.66
2023-03-16T19:14:33.070Z,101508.47
2023-03-16T19:17:36.315Z,101503.28
2023-03-16T19:20:41.688Z,101492.22
2023-03-16T19:23:46.833Z,101491.38
2023-03-16T19:26:52.950Z,101490.63
2023-03-16T19:29:57.790Z,101500.44
2023-03-16T19:33:01.313Z,101510.84
2023-03-16T19:36:05.096Z,101509.28
2023-03-16T19:39:08.153Z,101508.38
2023-03-16T19:42:22.348Z,101519.00
2023-03-16T19:45:33.257Z,101511.25
2023-03-16T19:48:36.399Z,101529.41
2023-03-16T19:51:42.737Z,101519.13
2023-03-16T19:54:45.675Z,101507.31
2023-03-16T19:57:50.951Z,101505.38
2023-03-16T20:00:55.345Z,101507.16
2023-03-16T20:04:00.739Z,101499.25
2023-03-16T20:07:04.063Z,101514.53
2023-03-16T20:10:08.066Z,101504.22
2023-03-16T20:13:12.365Z,101502.59
2023-03-16T20:16:29.971Z,101506.88
2023-03-16T20:19:33.572Z,101507.63
2023-03-16T20:22:36.733Z,101505.03
2023-03-16T20:25:39.911Z,101503.28
2023-03-16T20:28:43.285Z,101502.56
2023-03-16T20:31:48.031Z,101495.53
2023-03-16T20:34:53.687Z,101500.72
2023-03-16T20:37:57.057Z,101498.13
2023-03-16T20:40:59.967Z,101496.34
2023-03-16T20:44:03.165Z,101497.25
2023-03-16T20:47:13.813Z,101491.28
2023-03-16T20:50:23.534Z,101486.78
2023-03-16T20:53:27.124Z,101493.63
2023-03-16T20:56:32.327Z,101487.75
2023-03-16T20:59:35.351Z,101492.16
2023-03-16T21:02:40.099Z,101480.94
2023-03-16T21:05:44.762Z,101482.72
2023-03-16T21:08:48.048Z,101478.34
2023-03-16T21:11:51.077Z,101468.34
2023-03-16T21:14:54.746Z,101473.41
2023-03-16T21:18:01.875Z,101458.72
2023-03-16T21:21:05.327Z,101462.03
2023-03-16T21:24:09.485Z,101454.41
2023-03-16T21:27:23.082Z,101451.94
2023-03-16T21:30:30.765Z,101440.81
2023-03-16T21:33:37.585Z,101439.13
2023-03-16T21:36:42.755Z,101453.06
2023-03-16T21:39:48.621Z,101440.19
2023-03-16T21:42:51.652Z,101432.75
2023-03-16T21:45:55.474Z,101418.09
2023-03-16T21:48:59.814Z,101410.56
2023-03-16T21:52:03.131Z,101418.50
2023-03-16T21:55:15.269Z,101418.66
2023-03-16T21:58:21.562Z,101421.19
2023-03-16T22:01:27.792Z,101417.81
2023-03-16T22:04:32.318Z,101412.72
2023-03-16T22:07:35.240Z,101407.72
2023-03-16T22:10:39.784Z,101401.81
2023-03-16T22:13:43.171Z,101394.19
2023-03-16T22:16:46.465Z,101383.66
2023-03-16T22:19:50.748Z,101372.50
2023-03-16T22:22:54.980Z,101364.75
2023-03-16T22:25:59.553Z,101376.00
2023-03-16T22:29:03.220Z,101377.88
2023-03-16T22:32:12.414Z,101380.31
2023-03-16T22:35:28.997Z,101370.97
2023-03-16T22:38:32.452Z,101361.47
2023-03-16T22:41:35.846Z,101357.13
2023-03-16T22:44:38.814Z,101354.50
2023-03-16T22:47:41.867Z,101360.44
2023-03-16T22:50:47.498Z,101355.25
2023-03-16T22:53:56.044Z,101360.63
2023-03-16T22:56:59.170Z,101348.72
2023-03-16T23:00:11.130Z,101348.00
2023-03-16T23:03:18.588Z,101339.56
2023-03-16T23:06:25.185Z,101327.50
2023-03-16T23:09:28.887Z,101325.13
2023-03-16T23:12:35.099Z,101333.75
2023-03-16T23:15:38.453Z,101336.16
2023-03-16T23:18:42.023Z,101343.13
2023-03-16T23:21:46.407Z,101336.38
2023-03-16T23:24:49.513Z,101336.31
2023-03-16T23:27:53.295Z,101322.63
2023-03-16T23:30:56.467Z,101322.63
2023-03-16T23:34:00.153Z,101314.91
2023-03-16T23:37:05.117Z,101316.81
2023-03-16T23:40:09.395Z,101317.88
2023-03-16T23:43:12.720Z,101318.47
2023-03-16T23:46:18.680Z,101306.41
2023-03-16T23:49:24.830Z,101307.31
2023-03-16T23:52:29.163Z,101304.88
2023-03-16T23:55:32.188Z,101309.28
2023-03-16T23:58:35.466Z,101309.28
